Time;durP1;ratioP1;P1;durP2;ratioP2;P2;SDS_P1;SDS_P2;PMS_P1;PMS_P2;Temp;Humidity;BMP_temperature;BMP_pressure;BME280_temperature;BME280_humidity;BME280_pressure;Samples;Min_cycle;Max_cycle;Signal;HPM_P1;HPM_P2
2023/09/10 00:00:55;;;;;;;0.20;0.20;;;;;;;;;;5009944;28;20407;-64
2023/09/10 00:03:21;;;;;;;0.20;0.20;;;;;;;;;;5014425;28;20251;-59
2023/09/10 00:05:46;;;;;;;0.10;0.10;;;;;;;;;;5012625;28;20167;-60
2023/09/10 00:08:11;;;;;;;0.20;0.20;;;;;;;;;;5011687;28;20026;-61
2023/09/10 00:10:38;;;;;;;0.20;0.20;;;;;;;;;;5009008;28;20690;-61
2023/09/10 00:13:03;;;;;;;0.20;0.20;;;;;;;;;;5010313;28;20506;-60
2023/09/10 00:15:29;;;;;;;0.20;0.20;;;;;;;;;;5013680;28;20078;-61
2023/09/10 00:17:54;;;;;;;0.20;0.20;;;;;;;;;;5013589;28;20032;-62
2023/09/10 00:20:19;;;;;;;0.20;0.20;;;;;;;;;;5012305;28;20033;-60
2023/09/10 00:22:45;;;;;;;0.20;0.20;;;;;;;;;;5009693;28;20026;-61
2023/09/10 00:25:10;;;;;;;0.20;0.20;;;;;;;;;;5009726;28;20037;-63
2023/09/10 00:27:35;;;;;;;0.20;0.20;;;;;;;;;;5017315;28;20041;-61
2023/09/10 00:30:01;;;;;;;0.20;0.20;;;;;;;;;;5013287;28;20036;-63
2023/09/10 00:32:26;;;;;;;0.20;0.20;;;;;;;;;;5012142;28;20530;-58
2023/09/10 00:34:51;;;;;;;0.20;0.20;;;;;;;;;;5011492;28;20029;-59
2023/09/10 00:37:17;;;;;;;0.20;0.20;;;;;;;;;;5019205;28;20040;-60
2023/09/10 00:39:42;;;;;;;0.20;0.20;;;;;;;;;;5016918;28;20462;-59
2023/09/10 00:42:09;;;;;;;0.20;0.20;;;;;;;;;;5016963;28;20069;-63
2023/09/10 00:44:34;;;;;;;0.20;0.20;;;;;;;;;;5008241;28;20064;-59
2023/09/10 00:47:00;;;;;;;0.20;0.20;;;;;;;;;;5014147;28;20069;-59
2023/09/10 00:49:25;;;;;;;0.20;0.20;;;;;;;;;;5013449;28;20157;-59
2023/09/10 00:51:50;;;;;;;0.20;0.20;;;;;;;;;;5015337;28;20459;-58
2023/09/10 00:54:17;;;;;;;0.20;0.20;;;;;;;;;;5011892;28;20124;-59
2023/09/10 00:56:43;;;;;;;0.30;0.30;;;;;;;;;;5021207;28;20029;-60
2023/09/10 00:59:08;;;;;;;0.20;0.20;;;;;;;;;;5019623;28;20302;-60
2023/09/10 01:01:34;;;;;;;0.20;0.20;;;;;;;;;;5014723;28;20087;-61
2023/09/10 01:04:00;;;;;;;0.20;0.20;;;;;;;;;;5008950;23;20050;-63
2023/09/10 01:06:25;;;;;;;0.20;0.20;;;;;;;;;;4980855;28;20057;-61
2023/09/10 01:08:50;;;;;;;0.20;0.20;;;;;;;;;;4988454;28;20072;-61
2023/09/10 01:11:22;;;;;;;0.20;0.20;;;;;;;;;;4988932;28;20045;-59
2023/09/10 01:14:01;;;;;;;0.20;0.20;;;;;;;;;;4981526;28;20034;-61
2023/09/10 01:16:33;;;;;;;0.20;0.20;;;;;;;;;;4997879;28;20037;-60
2023/09/10 01:19:03;;;;;;;0.20;0.20;;;;;;;;;;5002552;28;20037;-64
2023/09/10 01:21:41;;;;;;;0.20;0.20;;;;;;;;;;4997422;28;20108;-62
2023/09/10 01:24:14;;;;;;;0.20;0.20;;;;;;;;;;5001539;28;21708;-61
2023/09/10 01:26:40;;;;;;;0.20;0.20;;;;;;;;;;4985300;28;20034;-61
2023/09/10 01:29:06;;;;;;;0.20;0.20;;;;;;;;;;4981127;28;20023;-60
2023/09/10 01:31:34;;;;;;;0.20;0.20;;;;;;;;;;4982907;28;20034;-59
2023/09/10 01:34:00;;;;;;;0.20;0.20;;;;;;;;;;4982822;28;20038;-61
2023/09/10 01:36:31;;;;;;;0.20;0.20;;;;;;;;;;4985120;28;20530;-62
2023/09/10 01:39:00;;;;;;;0.30;0.30;;;;;;;;;;4988388;28;20121;-60
2023/09/10 01:41:26;;;;;;;0.20;0.20;;;;;;;;;;4969415;28;20039;-60
2023/09/10 01:43:52;;;;;;;0.20;0.20;;;;;;;;;;4964659;28;20031;-62
2023/09/10 01:46:18;;;;;;;0.20;0.20;;;;;;;;;;4981038;28;20093;-61
2023/09/10 01:48:44;;;;;;;0.20;0.20;;;;;;;;;;4966687;28;20031;-62
2023/09/10 01:51:09;;;;;;;0.20;0.20;;;;;;;;;;4964415;28;21547;-63
2023/09/10 01:53:34;;;;;;;0.20;0.20;;;;;;;;;;4966240;28;20721;-60
2023/09/10 01:55:59;;;;;;;0.20;0.20;;;;;;;;;;4966619;28;20066;-61
2023/09/10 01:58:25;;;;;;;0.20;0.20;;;;;;;;;;4968096;28;20045;-63
2023/09/10 02:00:50;;;;;;;0.20;0.20;;;;;;;;;;4963847;28;20045;-59
2023/09/10 02:03:15;;;;;;;0.20;0.20;;;;;;;;;;4964194;28;20035;-62
2023/09/10 02:05:41;;;;;;;0.20;0.20;;;;;;;;;;4964179;28;20113;-62
2023/09/10 02:08:07;;;;;;;0.20;0.20;;;;;;;;;;4968268;28;20023;-63
2023/09/10 02:10:33;;;;;;;0.20;0.20;;;;;;;;;;4964799;28;20109;-61
2023/09/10 02:12:58;;;;;;;0.20;0.20;;;;;;;;;;4966269;28;20034;-62
2023/09/10 02:15:23;;;;;;;0.20;0.20;;;;;;;;;;4966723;28;20026;-60
2023/09/10 02:17:49;;;;;;;0.20;0.20;;;;;;;;;;4974369;28;20027;-59
2023/09/10 02:20:14;;;;;;;0.20;0.20;;;;;;;;;;4963027;28;20699;-59
2023/09/10 02:22:39;;;;;;;0.20;0.20;;;;;;;;;;4978232;28;20145;-59
2023/09/10 02:25:05;;;;;;;0.20;0.20;;;;;;;;;;4961760;28;20085;-61
2023/09/10 02:27:31;;;;;;;0.20;0.20;;;;;;;;;;4966119;28;20023;-60
2023/09/10 02:29:57;;;;;;;0.20;0.20;;;;;;;;;;4965634;28;20034;-61
2023/09/10 02:32:23;;;;;;;0.20;0.20;;;;;;;;;;4963559;28;20039;-60
2023/09/10 02:34:49;;;;;;;0.20;0.20;;;;;;;;;;4963931;28;20027;-61
2023/09/10 02:37:14;;;;;;;0.20;0.20;;;;;;;;;;4964159;28;20046;-59
2023/09/10 02:39:40;;;;;;;0.20;0.20;;;;;;;;;;4967851;28;20524;-60
2023/09/10 02:42:05;;;;;;;0.20;0.20;;;;;;;;;;4964233;28;20069;-61
2023/09/10 02:44:30;;;;;;;0.20;0.20;;;;;;;;;;4957630;28;20035;-61
2023/09/10 02:46:56;;;;;;;0.20;0.20;;;;;;;;;;4968390;28;20062;-61
2023/09/10 02:49:21;;;;;;;0.20;0.20;;;;;;;;;;4964652;28;20031;-60
2023/09/10 02:51:48;;;;;;;0.20;0.20;;;;;;;;;;4963113;28;20031;-62
2023/09/10 02:54:13;;;;;;;0.20;0.20;;;;;;;;;;4983392;28;20480;-61
2023/09/10 02:56:39;;;;;;;0.20;0.20;;;;;;;;;;4977230;28;20038;-61
2023/09/10 02:59:04;;;;;;;0.20;0.20;;;;;;;;;;4965187;28;20034;-61
2023/09/10 03:01:30;;;;;;;0.20;0.20;;;;;;;;;;4961971;28;20038;-60
2023/09/10 03:03:55;;;;;;;0.20;0.20;;;;;;;;;;4958821;28;20112;-60
2023/09/10 03:06:20;;;;;;;0.20;0.20;;;;;;;;;;4963889;28;20031;-61
2023/09/10 03:08:46;;;;;;;0.20;0.20;;;;;;;;;;4966564;28;20050;-60
2023/09/10 03:11:11;;;;;;;0.20;0.20;;;;;;;;;;4979342;28;20035;-60
2023/09/10 03:13:36;;;;;;;0.20;0.20;;;;;;;;;;4960445;28;20100;-62
2023/09/10 03:16:02;;;;;;;0.28;0.28;;;;;;;;;;4978853;28;20397;-59
2023/09/10 03:18:27;;;;;;;0.20;0.20;;;;;;;;;;4961610;28;20026;-60
2023/09/10 03:20:54;;;;;;;0.20;0.20;;;;;;;;;;4959057;28;20035;-60
2023/09/10 03:23:20;;;;;;;0.25;0.25;;;;;;;;;;4962973;28;20042;-60
2023/09/10 03:25:45;;;;;;;0.20;0.20;;;;;;;;;;4963201;28;20484;-59
2023/09/10 03:28:11;;;;;;;0.20;0.20;;;;;;;;;;4964787;28;20138;-63
2023/09/10 03:30:36;;;;;;;0.20;0.20;;;;;;;;;;4979082;28;20109;-63
2023/09/10 03:33:02;;;;;;;0.20;0.20;;;;;;;;;;4962864;28;20405;-60
2023/09/10 03:35:28;;;;;;;0.20;0.20;;;;;;;;;;4978299;28;20039;-60
2023/09/10 03:37:53;;;;;;;0.20;0.20;;;;;;;;;;4965250;28;20027;-60
2023/09/10 03:40:18;;;;;;;0.20;0.20;;;;;;;;;;4963670;28;20027;-60
2023/09/10 03:42:44;;;;;;;0.20;0.20;;;;;;;;;;4980429;28;20089;-60
2023/09/10 03:45:09;;;;;;;0.30;0.30;;;;;;;;;;4962570;28;20114;-60
2023/09/10 03:47:38;;;;;;;0.20;0.20;;;;;;;;;;4980147;28;20050;-59
2023/09/10 03:50:03;;;;;;;0.20;0.20;;;;;;;;;;4963136;28;20641;-60
2023/09/10 03:52:28;;;;;;;0.20;0.20;;;;;;;;;;4975171;28;20063;-60
2023/09/10 03:54:54;;;;;;;0.20;0.20;;;;;;;;;;4965311;28;20342;-62
2023/09/10 03:57:19;;;;;;;0.28;0.28;;;;;;;;;;4978851;28;20138;-63
2023/09/10 03:59:45;;;;;;;0.20;0.20;;;;;;;;;;4967439;28;20027;-61
2023/09/10 04:02:11;;;;;;;0.20;0.20;;;;;;;;;;4961710;28;20039;-64
2023/09/10 04:04:36;;;;;;;0.20;0.20;;;;;;;;;;4963816;28;20063;-62
2023/09/10 04:07:02;;;;;;;0.20;0.20;;;;;;;;;;4977240;28;20031;-60
2023/09/10 04:09:27;;;;;;;0.30;0.30;;;;;;;;;;4961095;28;20023;-60
2023/09/10 04:11:54;;;;;;;0.20;0.20;;;;;;;;;;4965442;28;20044;-62
2023/09/10 04:14:19;;;;;;;0.20;0.20;;;;;;;;;;4962863;28;20472;-62
2023/09/10 04:16:45;;;;;;;0.20;0.20;;;;;;;;;;4960081;28;20043;-60
2023/09/10 04:19:10;;;;;;;0.20;0.20;;;;;;;;;;4958709;28;20027;-63
2023/09/10 04:21:35;;;;;;;0.20;0.20;;;;;;;;;;4960952;28;20066;-59
2023/09/10 04:24:00;;;;;;;0.20;0.20;;;;;;;;;;4962317;28;20039;-61
2023/09/10 04:26:26;;;;;;;0.20;0.20;;;;;;;;;;4976910;28;20045;-60
2023/09/10 04:28:51;;;;;;;0.20;0.20;;;;;;;;;;4978798;28;20035;-59
2023/09/10 04:31:17;;;;;;;0.20;0.20;;;;;;;;;;4964950;28;20042;-61
2023/09/10 04:33:42;;;;;;;0.20;0.20;;;;;;;;;;4967837;28;20039;-64
2023/09/10 04:36:09;;;;;;;0.20;0.20;;;;;;;;;;4980467;28;20041;-63
2023/09/10 04:38:34;;;;;;;0.20;0.20;;;;;;;;;;4965680;28;20030;-61
2023/09/10 04:40:59;;;;;;;0.20;0.20;;;;;;;;;;4966774;28;20038;-59
2023/09/10 04:43:25;;;;;;;0.22;0.22;;;;;;;;;;4969849;28;20030;-61
2023/09/10 04:45:50;;;;;;;0.30;0.30;;;;;;;;;;4965487;28;20031;-63
2023/09/10 04:48:17;;;;;;;0.30;0.30;;;;;;;;;;4966352;28;20143;-60
2023/09/10 04:50:43;;;;;;;0.30;0.30;;;;;;;;;;4967287;28;20031;-60
2023/09/10 04:53:09;;;;;;;0.30;0.30;;;;;;;;;;4979544;28;20038;-62
2023/09/10 04:55:34;;;;;;;0.20;0.20;;;;;;;;;;4963448;28;20029;-61
2023/09/10 04:58:00;;;;;;;0.30;0.30;;;;;;;;;;4962721;28;20725;-61
2023/09/10 05:00:25;;;;;;;0.22;0.22;;;;;;;;;;4966396;28;20066;-61
2023/09/10 05:02:51;;;;;;;0.30;0.30;;;;;;;;;;4966481;28;20067;-63
2023/09/10 05:05:16;;;;;;;0.30;0.30;;;;;;;;;;4962974;28;20078;-62
2023/09/10 05:07:41;;;;;;;0.20;0.20;;;;;;;;;;4963597;28;20045;-61
2023/09/10 05:10:09;;;;;;;0.30;0.30;;;;;;;;;;4981784;28;20571;-60
2023/09/10 05:12:34;;;;;;;0.28;0.28;;;;;;;;;;4962765;28;20041;-60
2023/09/10 05:15:00;;;;;;;0.20;0.20;;;;;;;;;;4964529;28;20036;-62
2023/09/10 05:17:25;;;;;;;0.30;0.30;;;;;;;;;;4963229;28;20816;-64
2023/09/10 05:19:50;;;;;;;0.22;0.22;;;;;;;;;;4980115;28;20143;-58
2023/09/10 05:22:16;;;;;;;0.30;0.30;;;;;;;;;;4980923;28;20042;-63
2023/09/10 05:24:41;;;;;;;0.20;0.20;;;;;;;;;;4966839;28;20077;-60
2023/09/10 05:27:06;;;;;;;0.30;0.30;;;;;;;;;;4981570;28;20654;-62
2023/09/10 05:29:32;;;;;;;0.30;0.30;;;;;;;;;;4964879;28;20443;-61
2023/09/10 05:31:57;;;;;;;0.30;0.30;;;;;;;;;;4966205;28;20034;-59
2023/09/10 05:34:22;;;;;;;0.30;0.30;;;;;;;;;;4965207;28;20035;-66
2023/09/10 05:36:49;;;;;;;0.30;0.30;;;;;;;;;;4964464;28;20029;-60
2023/09/10 05:39:14;;;;;;;0.30;0.30;;;;;;;;;;4964498;28;21884;-60
2023/09/10 05:41:40;;;;;;;0.30;0.30;;;;;;;;;;4966226;28;20033;-62
2023/09/10 05:44:05;;;;;;;0.30;0.30;;;;;;;;;;4962560;28;20042;-62
2023/09/10 05:46:31;;;;;;;0.25;0.25;;;;;;;;;;4954852;28;20042;-61
2023/09/10 05:48:56;;;;;;;0.30;0.30;;;;;;;;;;4965617;28;20041;-62
2023/09/10 05:51:21;;;;;;;0.20;0.20;;;;;;;;;;4968236;28;20033;-62
2023/09/10 05:53:47;;;;;;;0.20;0.20;;;;;;;;;;4964484;28;20103;-61
2023/09/10 05:56:12;;;;;;;0.20;0.20;;;;;;;;;;4965104;28;21263;-63
2023/09/10 05:58:38;;;;;;;0.17;0.17;;;;;;;;;;4982203;28;20035;-62
2023/09/10 06:01:03;;;;;;;0.20;0.20;;;;;;;;;;4981459;28;20049;-60
2023/09/10 06:03:28;;;;;;;0.20;0.20;;;;;;;;;;4970891;28;20039;-64
2023/09/10 06:05:56;;;;;;;0.20;0.20;;;;;;;;;;4979309;28;20030;-61
2023/09/10 06:08:21;;;;;;;0.20;0.20;;;;;;;;;;4965584;28;20050;-61
2023/09/10 06:10:46;;;;;;;0.20;0.20;;;;;;;;;;4964653;28;20513;-62
2023/09/10 06:13:12;;;;;;;0.20;0.20;;;;;;;;;;4981984;28;20066;-60
2023/09/10 06:15:38;;;;;;;0.20;0.20;;;;;;;;;;4979562;28;20031;-64
2023/09/10 06:18:03;;;;;;;0.20;0.20;;;;;;;;;;4968399;28;20037;-60
2023/09/10 06:20:29;;;;;;;0.20;0.20;;;;;;;;;;4979921;28;20027;-62
2023/09/10 06:22:56;;;;;;;0.20;0.20;;;;;;;;;;4963772;28;20073;-62
2023/09/10 06:25:22;;;;;;;0.20;0.20;;;;;;;;;;4966477;28;20049;-61
2023/09/10 06:27:48;;;;;;;0.20;0.20;;;;;;;;;;4961101;28;20035;-61
2023/09/10 06:30:13;;;;;;;0.20;0.20;;;;;;;;;;4966107;28;20042;-62
2023/09/10 06:32:39;;;;;;;0.20;0.20;;;;;;;;;;4981194;28;20031;-64
2023/09/10 06:35:04;;;;;;;0.20;0.20;;;;;;;;;;4949905;28;20074;-61
2023/09/10 06:37:30;;;;;;;0.20;0.20;;;;;;;;;;4967167;28;20054;-60
2023/09/10 06:39:55;;;;;;;0.20;0.20;;;;;;;;;;4966572;28;20058;-64
2023/09/10 06:42:20;;;;;;;0.20;0.20;;;;;;;;;;4983936;28;20022;-61
2023/09/10 06:45:00;;;;;;;0.20;0.20;;;;;;;;;;4964863;28;20068;-61
2023/09/10 06:47:27;;;;;;;0.20;0.20;;;;;;;;;;4963521;28;20027;-60
2023/09/10 06:49:52;;;;;;;0.20;0.20;;;;;;;;;;4964370;28;20042;-60
2023/09/10 06:52:17;;;;;;;0.20;0.20;;;;;;;;;;4965683;28;20051;-61
2023/09/10 06:54:43;;;;;;;0.20;0.20;;;;;;;;;;4966714;28;20110;-62
2023/09/10 06:57:08;;;;;;;0.10;0.10;;;;;;;;;;4964131;28;20638;-61
2023/09/10 06:59:33;;;;;;;0.10;0.10;;;;;;;;;;4965315;28;20035;-60
2023/09/10 07:01:59;;;;;;;0.10;0.10;;;;;;;;;;4963408;28;20035;-60
2023/09/10 07:04:24;;;;;;;0.10;0.10;;;;;;;;;;4964244;28;20042;-60
2023/09/10 07:06:50;;;;;;;0.10;0.10;;;;;;;;;;4965017;28;20035;-62
2023/09/10 07:09:17;;;;;;;0.20;0.20;;;;;;;;;;4964974;28;20042;-63
2023/09/10 07:11:42;;;;;;;0.10;0.10;;;;;;;;;;4967169;28;20039;-62
2023/09/10 07:14:08;;;;;;;0.10;0.10;;;;;;;;;;4963585;28;20102;-63
2023/09/10 07:16:34;;;;;;;0.10;0.10;;;;;;;;;;4963487;28;20019;-61
2023/09/10 07:19:00;;;;;;;0.20;0.20;;;;;;;;;;4963808;28;20400;-60
2023/09/10 07:21:25;;;;;;;0.10;0.10;;;;;;;;;;4966316;28;20089;-59
2023/09/10 07:23:50;;;;;;;0.10;0.10;;;;;;;;;;4969373;28;20035;-61
2023/09/10 07:26:16;;;;;;;0.10;0.10;;;;;;;;;;4968317;28;20116;-61
2023/09/10 07:28:41;;;;;;;0.10;0.10;;;;;;;;;;4983340;28;20034;-60
2023/09/10 07:31:07;;;;;;;0.10;0.10;;;;;;;;;;4966449;28;20043;-61
2023/09/10 07:33:33;;;;;;;0.10;0.10;;;;;;;;;;4967584;28;20057;-61
2023/09/10 07:35:58;;;;;;;0.10;0.10;;;;;;;;;;4965556;28;20026;-60
2023/09/10 07:38:23;;;;;;;0.10;0.10;;;;;;;;;;4966630;28;20049;-60
2023/09/10 07:40:48;;;;;;;0.10;0.10;;;;;;;;;;4962927;28;20035;-62
2023/09/10 07:43:14;;;;;;;0.10;0.10;;;;;;;;;;4965672;28;20136;-60
2023/09/10 07:45:39;;;;;;;0.10;0.10;;;;;;;;;;4964778;28;20046;-61
2023/09/10 07:48:05;;;;;;;0.10;0.10;;;;;;;;;;4982820;28;20058;-61
2023/09/10 07:50:31;;;;;;;0.10;0.10;;;;;;;;;;4969221;28;20558;-61
2023/09/10 07:52:56;;;;;;;0.10;0.10;;;;;;;;;;4967031;28;20577;-62
2023/09/10 07:55:21;;;;;;;0.10;0.10;;;;;;;;;;4965039;28;20045;-63
2023/09/10 07:57:47;;;;;;;0.10;0.10;;;;;;;;;;4973045;28;20031;-62
2023/09/10 08:00:12;;;;;;;0.10;0.10;;;;;;;;;;4966703;28;20316;-62
2023/09/10 08:02:38;;;;;;;0.10;0.10;;;;;;;;;;4941387;28;20072;-64
2023/09/10 08:05:05;;;;;;;0.10;0.10;;;;;;;;;;4934670;28;20401;-61
2023/09/10 08:07:31;;;;;;;0.10;0.10;;;;;;;;;;4932666;29;20031;-60
2023/09/10 08:09:56;;;;;;;0.10;0.10;;;;;;;;;;4937808;28;20043;-61
2023/09/10 08:12:21;;;;;;;0.10;0.10;;;;;;;;;;4930406;28;20709;-60
2023/09/10 08:14:47;;;;;;;0.10;0.10;;;;;;;;;;4970435;28;20042;-60
2023/09/10 08:17:12;;;;;;;0.10;0.10;;;;;;;;;;4969587;28;20469;-61
2023/09/10 08:19:37;;;;;;;0.10;0.10;;;;;;;;;;4969166;28;20027;-65
2023/09/10 08:22:02;;;;;;;0.10;0.10;;;;;;;;;;4970982;28;20030;-62
2023/09/10 08:24:28;;;;;;;0.07;0.07;;;;;;;;;;4971978;28;20026;-61
2023/09/10 08:26:54;;;;;;;0.00;0.00;;;;;;;;;;4966744;28;20042;-63
2023/09/10 08:29:19;;;;;;;0.00;0.00;;;;;;;;;;4969074;28;20058;-60
2023/09/10 08:31:44;;;;;;;0.10;0.10;;;;;;;;;;4969465;28;20070;-62
2023/09/10 08:34:09;;;;;;;0.00;0.00;;;;;;;;;;4965832;28;20035;-62
2023/09/10 08:36:35;;;;;;;0.10;0.10;;;;;;;;;;4969379;28;20064;-61
2023/09/10 08:39:00;;;;;;;0.00;0.00;;;;;;;;;;4969708;28;20113;-61
2023/09/10 08:41:40;;;;;;;0.00;0.00;;;;;;;;;;4971339;28;20045;-62
2023/09/10 08:44:07;;;;;;;0.00;0.00;;;;;;;;;;4970219;28;20038;-59
2023/09/10 08:46:33;;;;;;;0.00;0.00;;;;;;;;;;4968629;28;20027;-61
2023/09/10 08:48:59;;;;;;;0.00;0.00;;;;;;;;;;4969520;28;20055;-61
2023/09/10 08:51:25;;;;;;;0.00;0.00;;;;;;;;;;4999303;28;20121;-61
2023/09/10 08:53:51;;;;;;;0.00;0.00;;;;;;;;;;4976595;28;20129;-60
2023/09/10 08:56:17;;;;;;;0.00;0.00;;;;;;;;;;4970744;28;20034;-63
2023/09/10 08:58:43;;;;;;;0.03;0.03;;;;;;;;;;4968296;28;20042;-61
2023/09/10 09:01:09;;;;;;;0.00;0.00;;;;;;;;;;4967994;28;20039;-62
2023/09/10 09:03:34;;;;;;;0.07;0.07;;;;;;;;;;4983502;28;20039;-59
2023/09/10 09:06:04;;;;;;;0.00;0.00;;;;;;;;;;4996769;28;20035;-59
2023/09/10 09:08:30;;;;;;;0.00;0.00;;;;;;;;;;4968096;28;20037;-59
2023/09/10 09:10:57;;;;;;;0.00;0.00;;;;;;;;;;4970205;28;20035;-59
2023/09/10 09:13:22;;;;;;;;;;;;;;;;;;4967222;28;20093;-60
2023/09/10 09:15:48;;;;;;;0.00;0.00;;;;;;;;;;4963780;28;19914;-60
2023/09/10 09:18:16;;;;;;;0.00;0.00;;;;;;;;;;4966694;28;20015;-60
2023/09/10 09:20:46;;;;;;;0.00;0.00;;;;;;;;;;4970140;28;20115;-59
2023/09/10 09:23:22;;;;;;;0.00;0.00;;;;;;;;;;4968666;28;20141;-61
2023/09/10 09:25:48;;;;;;;0.00;0.00;;;;;;;;;;4967627;28;20062;-61
2023/09/10 09:28:13;;;;;;;0.00;0.00;;;;;;;;;;4967727;28;20110;-60
2023/09/10 09:30:39;;;;;;;0.00;0.00;;;;;;;;;;4968118;28;20563;-61
2023/09/10 09:33:04;;;;;;;0.00;0.00;;;;;;;;;;4999245;28;20034;-63
2023/09/10 09:35:32;;;;;;;0.00;0.00;;;;;;;;;;4968274;28;20038;-62
2023/09/10 09:38:03;;;;;;;0.00;0.00;;;;;;;;;;4965771;28;20031;-61
2023/09/10 09:40:28;;;;;;;0.00;0.00;;;;;;;;;;4969661;28;20105;-62
2023/09/10 09:42:57;;;;;;;0.00;0.00;;;;;;;;;;4963979;28;20113;-62
2023/09/10 09:45:23;;;;;;;0.00;0.00;;;;;;;;;;4973420;28;20072;-64
2023/09/10 09:47:48;;;;;;;0.00;0.00;;;;;;;;;;4983124;28;20783;-62
2023/09/10 09:50:14;;;;;;;0.00;0.00;;;;;;;;;;4966947;28;20043;-63
2023/09/10 09:52:40;;;;;;;0.00;0.00;;;;;;;;;;4967509;28;20436;-63
2023/09/10 09:55:07;;;;;;;0.00;0.00;;;;;;;;;;4982138;28;20038;-62
2023/09/10 09:57:36;;;;;;;0.00;0.00;;;;;;;;;;4967779;28;20562;-61
2023/09/10 10:00:05;;;;;;;0.00;0.00;;;;;;;;;;4967170;28;20022;-63
2023/09/10 10:02:31;;;;;;;0.00;0.00;;;;;;;;;;4966773;28;20066;-63
2023/09/10 10:04:56;;;;;;;0.00;0.00;;;;;;;;;;4967268;28;20117;-64
2023/09/10 10:07:25;;;;;;;0.00;0.00;;;;;;;;;;4966372;28;20274;-60
2023/09/10 10:09:51;;;;;;;0.00;0.00;;;;;;;;;;4968320;28;20045;-60
2023/09/10 10:12:16;;;;;;;0.00;0.00;;;;;;;;;;4967068;28;20034;-62
2023/09/10 10:14:42;;;;;;;0.00;0.00;;;;;;;;;;4963090;28;20037;-60
2023/09/10 10:17:08;;;;;;;0.00;0.00;;;;;;;;;;4966090;28;20725;-62
2023/09/10 10:19:34;;;;;;;0.00;0.00;;;;;;;;;;4973449;28;20097;-61
2023/09/10 10:21:59;;;;;;;0.00;0.00;;;;;;;;;;4958242;28;20166;-60
2023/09/10 10:24:25;;;;;;;0.00;0.00;;;;;;;;;;4961760;28;20067;-62
2023/09/10 10:26:51;;;;;;;0.00;0.00;;;;;;;;;;4959269;28;20782;-60
2023/09/10 10:29:22;;;;;;;0.00;0.00;;;;;;;;;;4978731;28;20037;-62
2023/09/10 10:32:17;;;;;;;0.00;0.00;;;;;;;;;;4961921;28;20053;-61
2023/09/10 10:34:52;;;;;;;0.00;0.00;;;;;;;;;;4947061;28;20043;-60
2023/09/10 10:37:26;;;;;;;0.00;0.00;;;;;;;;;;4963392;28;20039;-62
2023/09/10 10:40:08;;;;;;;0.00;0.00;;;;;;;;;;4958140;28;20056;-61
2023/09/10 10:42:57;;;;;;;0.00;0.00;;;;;;;;;;4995212;28;20039;-64
2023/09/10 10:45:24;;;;;;;0.00;0.00;;;;;;;;;;4960235;28;20046;-62
2023/09/10 10:47:50;;;;;;;0.00;0.00;;;;;;;;;;4991789;28;20726;-62
2023/09/10 10:50:25;;;;;;;0.00;0.00;;;;;;;;;;4967216;28;20039;-64
2023/09/10 10:53:05;;;;;;;0.00;0.00;;;;;;;;;;4954056;28;20812;-61
2023/09/10 10:55:33;;;;;;;0.00;0.00;;;;;;;;;;4972696;28;20085;-61
2023/09/10 10:57:59;;;;;;;0.00;0.00;;;;;;;;;;4957966;28;20037;-61
2023/09/10 11:00:25;;;;;;;;;;;;;;;;;;4956687;28;20516;-60
2023/09/10 11:03:09;;;;;;;0.00;0.00;;;;;;;;;;4962938;28;20482;-62
2023/09/10 11:06:04;;;;;;;0.00;0.00;;;;;;;;;;4957755;28;20034;-62
2023/09/10 11:08:29;;;;;;;0.00;0.00;;;;;;;;;;4955086;28;20074;-64
2023/09/10 11:10:54;;;;;;;0.00;0.00;;;;;;;;;;4963141;28;20062;-60
2023/09/10 11:13:22;;;;;;;0.00;0.00;;;;;;;;;;4958866;28;20042;-63
2023/09/10 11:16:06;;;;;;;0.00;0.00;;;;;;;;;;4964383;28;20030;-63
2023/09/10 11:18:34;;;;;;;0.00;0.00;;;;;;;;;;4966950;28;20023;-62
2023/09/10 11:20:59;;;;;;;0.00;0.00;;;;;;;;;;4960776;28;20038;-61
2023/09/10 11:23:25;;;;;;;0.00;0.00;;;;;;;;;;4962383;28;20530;-63
2023/09/10 11:25:51;;;;;;;;;;;;;;;;;;4956556;28;20033;-63
2023/09/10 11:28:51;;;;;;;0.00;0.00;;;;;;;;;;4990970;28;19914;-61
2023/09/10 11:31:29;;;;;;;0.00;0.00;;;;;;;;;;4908687;29;20044;-61
2023/09/10 11:33:59;;;;;;;0.00;0.00;;;;;;;;;;4954157;28;20050;-66
2023/09/10 11:36:27;;;;;;;0.00;0.00;;;;;;;;;;4958091;28;20039;-61
2023/09/10 11:38:54;;;;;;;0.00;0.00;;;;;;;;;;4963629;28;20026;-62
2023/09/10 11:41:20;;;;;;;0.00;0.00;;;;;;;;;;4958868;28;20039;-62
2023/09/10 11:43:48;;;;;;;0.00;0.00;;;;;;;;;;4993357;28;20784;-61
2023/09/10 11:46:13;;;;;;;0.00;0.00;;;;;;;;;;4957812;28;20031;-61
2023/09/10 11:48:39;;;;;;;0.00;0.00;;;;;;;;;;4957182;28;20780;-66
2023/09/10 11:51:04;;;;;;;0.00;0.00;;;;;;;;;;4963306;28;20033;-61
2023/09/10 11:53:30;;;;;;;0.00;0.00;;;;;;;;;;4958507;28;20030;-62
2023/09/10 11:55:55;;;;;;;0.00;0.00;;;;;;;;;;4961600;28;20055;-60
2023/09/10 11:58:20;;;;;;;0.00;0.00;;;;;;;;;;4962265;28;20400;-64
2023/09/10 12:00:46;;;;;;;0.00;0.00;;;;;;;;;;4961701;28;20046;-61
2023/09/10 12:03:11;;;;;;;0.00;0.00;;;;;;;;;;4965845;28;20049;-62
2023/09/10 12:05:36;;;;;;;0.00;0.00;;;;;;;;;;4959514;28;20058;-62
2023/09/10 12:08:03;;;;;;;0.00;0.00;;;;;;;;;;4965016;28;20022;-62
2023/09/10 12:10:29;;;;;;;0.00;0.00;;;;;;;;;;4957259;28;20041;-64
2023/09/10 12:12:56;;;;;;;0.00;0.00;;;;;;;;;;4987074;28;20027;-61
2023/09/10 12:15:22;;;;;;;0.00;0.00;;;;;;;;;;4962092;28;20113;-62
2023/09/10 12:17:47;;;;;;;0.00;0.00;;;;;;;;;;4959159;28;20110;-61
2023/09/10 12:20:13;;;;;;;0.00;0.00;;;;;;;;;;4965476;28;20467;-61
2023/09/10 12:22:38;;;;;;;0.00;0.00;;;;;;;;;;4957752;28;20067;-61
2023/09/10 12:25:04;;;;;;;0.00;0.00;;;;;;;;;;4964235;28;20047;-63
2023/09/10 12:27:29;;;;;;;0.00;0.00;;;;;;;;;;4967932;28;20049;-62
2023/09/10 12:29:54;;;;;;;0.00;0.00;;;;;;;;;;4960774;28;20022;-60
2023/09/10 12:32:20;;;;;;;0.00;0.00;;;;;;;;;;4967599;28;20061;-62
2023/09/10 12:34:45;;;;;;;0.00;0.00;;;;;;;;;;4959342;28;20114;-62
2023/09/10 12:37:15;;;;;;;0.00;0.00;;;;;;;;;;4958375;28;20284;-62
2023/09/10 12:39:41;;;;;;;0.00;0.00;;;;;;;;;;4980690;28;20617;-62
2023/09/10 12:42:07;;;;;;;0.00;0.00;;;;;;;;;;4959779;28;20031;-61
2023/09/10 12:44:36;;;;;;;0.00;0.00;;;;;;;;;;4965295;28;20045;-62
2023/09/10 12:47:02;;;;;;;0.00;0.00;;;;;;;;;;4964360;28;20031;-62
2023/09/10 12:49:28;;;;;;;0.00;0.00;;;;;;;;;;4962028;28;20046;-61
2023/09/10 12:51:53;;;;;;;0.00;0.00;;;;;;;;;;4966972;28;20105;-62
2023/09/10 12:54:18;;;;;;;0.00;0.00;;;;;;;;;;4965903;28;20046;-63
2023/09/10 12:56:47;;;;;;;0.00;0.00;;;;;;;;;;4966618;28;20146;-62
2023/09/10 12:59:12;;;;;;;0.00;0.00;;;;;;;;;;4972550;28;20443;-63
2023/09/10 13:01:38;;;;;;;0.00;0.00;;;;;;;;;;4961773;28;20093;-63
2023/09/10 13:04:04;;;;;;;0.00;0.00;;;;;;;;;;4969993;28;20134;-63
2023/09/10 13:06:29;;;;;;;0.00;0.00;;;;;;;;;;4961543;28;20105;-63
2023/09/10 13:08:55;;;;;;;0.00;0.00;;;;;;;;;;4991141;28;20571;-62
2023/09/10 13:11:20;;;;;;;0.00;0.00;;;;;;;;;;4965379;28;20042;-65
2023/09/10 13:13:46;;;;;;;0.00;0.00;;;;;;;;;;4965232;28;20121;-62
2023/09/10 13:16:11;;;;;;;0.00;0.00;;;;;;;;;;4964406;28;20304;-63
2023/09/10 13:18:36;;;;;;;0.00;0.00;;;;;;;;;;4960481;28;20118;-64
2023/09/10 13:21:03;;;;;;;0.00;0.00;;;;;;;;;;4958239;28;20046;-62
2023/09/10 13:23:28;;;;;;;0.00;0.00;;;;;;;;;;4978005;28;20031;-61
2023/09/10 13:25:53;;;;;;;0.00;0.00;;;;;;;;;;4959917;28;20436;-60
2023/09/10 13:28:18;;;;;;;0.00;0.00;;;;;;;;;;4965368;28;20031;-62
2023/09/10 13:30:44;;;;;;;0.00;0.00;;;;;;;;;;4961238;28;20831;-65
2023/09/10 13:33:09;;;;;;;0.00;0.00;;;;;;;;;;4955756;28;20104;-62
2023/09/10 13:35:37;;;;;;;0.00;0.00;;;;;;;;;;4961567;28;20038;-62
2023/09/10 13:38:03;;;;;;;0.00;0.00;;;;;;;;;;4974102;28;20045;-62
2023/09/10 13:40:28;;;;;;;0.00;0.00;;;;;;;;;;4963636;28;20034;-61
2023/09/10 13:42:54;;;;;;;0.00;0.00;;;;;;;;;;4960259;28;20031;-64
2023/09/10 13:45:19;;;;;;;0.00;0.00;;;;;;;;;;4961273;28;20041;-64
2023/09/10 13:47:45;;;;;;;0.00;0.00;;;;;;;;;;4955756;28;20149;-65
2023/09/10 13:50:11;;;;;;;0.00;0.00;;;;;;;;;;4963909;28;20444;-65
2023/09/10 13:52:38;;;;;;;0.00;0.00;;;;;;;;;;4968808;28;20821;-62
2023/09/10 13:55:04;;;;;;;0.00;0.00;;;;;;;;;;4961760;28;20034;-63
2023/09/10 13:57:29;;;;;;;0.00;0.00;;;;;;;;;;4959189;28;20034;-63
2023/09/10 13:59:54;;;;;;;0.00;0.00;;;;;;;;;;4972137;28;20469;-63
2023/09/10 14:02:20;;;;;;;0.00;0.00;;;;;;;;;;4961700;28;20030;-62
2023/09/10 14:04:45;;;;;;;0.00;0.00;;;;;;;;;;4967490;28;20101;-62
2023/09/10 14:07:10;;;;;;;0.00;0.00;;;;;;;;;;4958633;28;20388;-65
2023/09/10 14:09:36;;;;;;;0.00;0.00;;;;;;;;;;4962325;28;20371;-62
2023/09/10 14:12:01;;;;;;;0.00;0.00;;;;;;;;;;4965206;28;20300;-62
2023/09/10 14:14:26;;;;;;;0.00;0.00;;;;;;;;;;4963063;28;20043;-62
2023/09/10 14:16:51;;;;;;;0.00;0.00;;;;;;;;;;4965185;28;20117;-62
2023/09/10 14:19:17;;;;;;;0.00;0.00;;;;;;;;;;4959454;28;20045;-62
2023/09/10 14:21:42;;;;;;;0.00;0.00;;;;;;;;;;4965159;28;20031;-63
2023/09/10 14:24:07;;;;;;;0.00;0.00;;;;;;;;;;4967006;28;20030;-62
2023/09/10 14:26:33;;;;;;;0.00;0.00;;;;;;;;;;4963894;28;20042;-62
2023/09/10 14:28:58;;;;;;;0.00;0.00;;;;;;;;;;4984632;28;20045;-62
2023/09/10 14:31:23;;;;;;;0.00;0.00;;;;;;;;;;4957573;28;20495;-63
2023/09/10 14:33:48;;;;;;;0.00;0.00;;;;;;;;;;4958144;28;20108;-64
2023/09/10 14:36:14;;;;;;;0.00;0.00;;;;;;;;;;4999721;28;20284;-61
2023/09/10 14:38:41;;;;;;;0.00;0.00;;;;;;;;;;4960595;28;20027;-61